Terminal Aerodrome Forecast
Issued by NWS Pueblo, CO

Home | Current Version | Previous Version | Text Only | Print | Product List | Glossary On
Versions: 1 2 3 4 5 6 7 8 9 10 11 12 13 14 15 16 17 18 19 20 21
000
FTUS45 KPUB 251123
TAFCOS
TAF
KCOS 251123Z 2512/2612 VRB05KT P6SM FEW020 SCT200
     FM251500 14009KT P6SM SCT120 SCT200
     FM252100 14011KT P6SM VCTS SCT080CB BKN120
     FM260400 10007KT P6SM VCSH BKN060=

USA.gov is the U.S. government's official web portal to all federal, state and local government web resources and services.